sensor_id;sensor_type;location;lat;lon;timestamp;temperature;humidity
70294;DHT22;74367;35.280;-77.632;2024-03-07T00:01:07;15.24;98.10
70294;DHT22;74367;35.280;-77.632;2024-03-07T00:03:33;15.21;98.08
70294;DHT22;74367;35.280;-77.632;2024-03-07T00:06:01;15.19;98.09
70294;DHT22;74367;35.280;-77.632;2024-03-07T00:08:28;15.20;98.10
70294;DHT22;74367;35.280;-77.632;2024-03-07T00:10:56;15.23;98.08
70294;DHT22;74367;35.280;-77.632;2024-03-07T00:13:23;15.20;98.07
70294;DHT22;74367;35.280;-77.632;2024-03-07T00:15:50;15.26;98.08
70294;DHT22;74367;35.280;-77.632;2024-03-07T00:18:16;15.28;98.08
70294;DHT22;74367;35.280;-77.632;2024-03-07T00:20:42;15.24;98.10
70294;DHT22;74367;35.280;-77.632;2024-03-07T00:23:08;15.23;98.08
70294;DHT22;74367;35.280;-77.632;2024-03-07T00:25:34;15.24;98.11
70294;DHT22;74367;35.280;-77.632;2024-03-07T00:28:00;15.24;98.11
70294;DHT22;74367;35.280;-77.632;2024-03-07T00:30:29;15.26;98.11
70294;DHT22;74367;35.280;-77.632;2024-03-07T00:32:56;15.24;98.11
70294;DHT22;74367;35.280;-77.632;2024-03-07T00:35:22;15.23;98.11
70294;DHT22;74367;35.280;-77.632;2024-03-07T00:37:48;15.26;98.08
70294;DHT22;74367;35.280;-77.632;2024-03-07T00:40:14;15.28;98.13
70294;DHT22;74367;35.280;-77.632;2024-03-07T00:42:40;15.26;98.07
70294;DHT22;74367;35.280;-77.632;2024-03-07T00:45:06;15.27;98.12
70294;DHT22;74367;35.280;-77.632;2024-03-07T00:47:32;15.27;98.11
70294;DHT22;74367;35.280;-77.632;2024-03-07T00:49:59;15.14;98.08
70294;DHT22;74367;35.280;-77.632;2024-03-07T00:52:25;15.16;98.11
70294;DHT22;74367;35.280;-77.632;2024-03-07T00:54:51;15.20;98.12
70294;DHT22;74367;35.280;-77.632;2024-03-07T00:57:17;15.19;98.09
70294;DHT22;74367;35.280;-77.632;2024-03-07T00:59:43;15.26;98.12
70294;DHT22;74367;35.280;-77.632;2024-03-07T01:02:09;15.17;98.09
70294;DHT22;74367;35.280;-77.632;2024-03-07T01:04:35;15.14;98.11
70294;DHT22;74367;35.280;-77.632;2024-03-07T01:07:01;15.17;98.12
70294;DHT22;74367;35.280;-77.632;2024-03-07T01:09:27;15.21;98.11
70294;DHT22;74367;35.280;-77.632;2024-03-07T01:11:54;15.24;98.14
70294;DHT22;74367;35.280;-77.632;2024-03-07T01:14:21;15.27;98.09
70294;DHT22;74367;35.280;-77.632;2024-03-07T01:16:48;15.27;98.12
70294;DHT22;74367;35.280;-77.632;2024-03-07T01:19:13;15.28;98.12
70294;DHT22;74367;35.280;-77.632;2024-03-07T01:21:40;15.28;98.12
70294;DHT22;74367;35.280;-77.632;2024-03-07T01:24:06;15.23;98.13
70294;DHT22;74367;35.280;-77.632;2024-03-07T01:26:32;15.27;98.09
70294;DHT22;74367;35.280;-77.632;2024-03-07T01:29:01;15.24;98.12
70294;DHT22;74367;35.280;-77.632;2024-03-07T01:31:27;15.21;98.08
70294;DHT22;74367;35.280;-77.632;2024-03-07T01:33:53;15.17;98.09
70294;DHT22;74367;35.280;-77.632;2024-03-07T01:36:20;15.19;98.09
70294;DHT22;74367;35.280;-77.632;2024-03-07T01:38:46;15.26;98.13
70294;DHT22;74367;35.280;-77.632;2024-03-07T01:41:13;15.23;98.12
70294;DHT22;74367;35.280;-77.632;2024-03-07T01:43:41;15.26;98.14
70294;DHT22;74367;35.280;-77.632;2024-03-07T01:46:07;15.20;98.15
70294;DHT22;74367;35.280;-77.632;2024-03-07T01:48:34;15.20;98.10
70294;DHT22;74367;35.280;-77.632;2024-03-07T01:51:00;15.24;98.12
70294;DHT22;74367;35.280;-77.632;2024-03-07T01:53:30;15.21;98.09
70294;DHT22;74367;35.280;-77.632;2024-03-07T01:56:00;15.11;98.11
70294;DHT22;74367;35.280;-77.632;2024-03-07T01:58:29;15.14;98.13
70294;DHT22;74367;35.280;-77.632;2024-03-07T02:00:55;15.20;98.16
70294;DHT22;74367;35.280;-77.632;2024-03-07T02:03:22;15.23;98.14
70294;DHT22;74367;35.280;-77.632;2024-03-07T02:05:48;15.26;98.13
70294;DHT22;74367;35.280;-77.632;2024-03-07T02:08:15;15.27;98.12
70294;DHT22;74367;35.280;-77.632;2024-03-07T02:10:41;15.26;98.14
70294;DHT22;74367;35.280;-77.632;2024-03-07T02:13:07;15.26;98.13
70294;DHT22;74367;35.280;-77.632;2024-03-07T02:15:33;15.27;98.13
70294;DHT22;74367;35.280;-77.632;2024-03-07T02:17:59;15.23;98.14
70294;DHT22;74367;35.280;-77.632;2024-03-07T02:20:25;15.24;98.14
70294;DHT22;74367;35.280;-77.632;2024-03-07T02:22:54;15.24;98.13
70294;DHT22;74367;35.280;-77.632;2024-03-07T02:25:20;15.23;98.15
70294;DHT22;74367;35.280;-77.632;2024-03-07T02:27:47;15.23;98.16
70294;DHT22;74367;35.280;-77.632;2024-03-07T02:30:13;15.17;98.12
70294;DHT22;74367;35.280;-77.632;2024-03-07T02:32:40;15.21;98.16
70294;DHT22;74367;35.280;-77.632;2024-03-07T02:35:06;15.17;98.17
70294;DHT22;74367;35.280;-77.632;2024-03-07T02:37:34;15.20;98.14
70294;DHT22;74367;35.280;-77.632;2024-03-07T02:40:00;15.24;98.16
70294;DHT22;74367;35.280;-77.632;2024-03-07T02:42:26;15.20;98.14
70294;DHT22;74367;35.280;-77.632;2024-03-07T02:44:52;15.26;98.17
70294;DHT22;74367;35.280;-77.632;2024-03-07T02:47:18;15.26;98.17
70294;DHT22;74367;35.280;-77.632;2024-03-07T02:49:44;15.27;98.16
70294;DHT22;74367;35.280;-77.632;2024-03-07T02:52:10;15.27;98.12
70294;DHT22;74367;35.280;-77.632;2024-03-07T02:54:36;15.28;98.14
70294;DHT22;74367;35.280;-77.632;2024-03-07T02:57:02;15.28;98.17
70294;DHT22;74367;35.280;-77.632;2024-03-07T02:59:28;15.31;98.15
70294;DHT22;74367;35.280;-77.632;2024-03-07T03:01:54;15.31;98.13
70294;DHT22;74367;35.280;-77.632;2024-03-07T03:04:21;15.26;98.18
70294;DHT22;74367;35.280;-77.632;2024-03-07T03:06:46;15.33;98.20
70294;DHT22;74367;35.280;-77.632;2024-03-07T03:09:13;15.28;98.18
70294;DHT22;74367;35.280;-77.632;2024-03-07T03:11:46;15.19;98.15
70294;DHT22;74367;35.280;-77.632;2024-03-07T03:14:12;15.21;98.19
70294;DHT22;74367;35.280;-77.632;2024-03-07T03:16:42;15.27;98.17
70294;DHT22;74367;35.280;-77.632;2024-03-07T03:19:09;15.30;98.17
70294;DHT22;74367;35.280;-77.632;2024-03-07T03:21:36;15.27;98.15
70294;DHT22;74367;35.280;-77.632;2024-03-07T03:24:02;15.27;98.19
70294;DHT22;74367;35.280;-77.632;2024-03-07T03:26:28;15.30;98.20
70294;DHT22;74367;35.280;-77.632;2024-03-07T03:28:54;15.31;98.19
70294;DHT22;74367;35.280;-77.632;2024-03-07T03:31:20;15.27;98.16
70294;DHT22;74367;35.280;-77.632;2024-03-07T03:33:46;15.16;98.20
70294;DHT22;74367;35.280;-77.632;2024-03-07T03:36:13;15.13;98.21
70294;DHT22;74367;35.280;-77.632;2024-03-07T03:38:39;15.17;98.19
70294;DHT22;74367;35.280;-77.632;2024-03-07T03:41:07;15.23;98.22
70294;DHT22;74367;35.280;-77.632;2024-03-07T03:43:33;15.27;98.19
70294;DHT22;74367;35.280;-77.632;2024-03-07T03:45:59;15.24;98.22
70294;DHT22;74367;35.280;-77.632;2024-03-07T03:48:27;15.26;98.19
70294;DHT22;74367;35.280;-77.632;2024-03-07T03:50:53;15.26;98.23
70294;DHT22;74367;35.280;-77.632;2024-03-07T03:53:19;15.30;98.22
70294;DHT22;74367;35.280;-77.632;2024-03-07T03:55:45;15.28;98.14
70294;DHT22;74367;35.280;-77.632;2024-03-07T03:58:12;15.24;98.17
70294;DHT22;74367;35.280;-77.632;2024-03-07T04:00:39;15.14;97.84
70294;DHT22;74367;35.280;-77.632;2024-03-07T04:03:05;15.17;97.86
70294;DHT22;74367;35.280;-77.632;2024-03-07T04:05:32;15.23;97.89
70294;DHT22;74367;35.280;-77.632;2024-03-07T04:07:58;15.24;97.87
70294;DHT22;74367;35.280;-77.632;2024-03-07T04:10:24;15.26;97.89
70294;DHT22;74367;35.280;-77.632;2024-03-07T04:12:50;15.23;97.89
70294;DHT22;74367;35.280;-77.632;2024-03-07T04:15:16;15.28;97.87
70294;DHT22;74367;35.280;-77.632;2024-03-07T04:17:45;15.28;97.90
70294;DHT22;74367;35.280;-77.632;2024-03-07T04:20:11;15.28;97.89
70294;DHT22;74367;35.280;-77.632;2024-03-07T04:22:39;15.27;97.85
70294;DHT22;74367;35.280;-77.632;2024-03-07T04:25:06;15.28;97.91
70294;DHT22;74367;35.280;-77.632;2024-03-07T04:27:33;15.24;97.86
70294;DHT22;74367;35.280;-77.632;2024-03-07T04:30:03;15.28;97.90
70294;DHT22;74367;35.280;-77.632;2024-03-07T04:32:30;15.26;97.92
70294;DHT22;74367;35.280;-77.632;2024-03-07T04:34:56;15.24;97.89
70294;DHT22;74367;35.280;-77.632;2024-03-07T04:37:26;15.24;97.89
70294;DHT22;74367;35.280;-77.632;2024-03-07T04:39:55;15.24;97.85
70294;DHT22;74367;35.280;-77.632;2024-03-07T04:42:21;15.28;97.90
70294;DHT22;74367;35.280;-77.632;2024-03-07T04:44:48;15.27;97.90
70294;DHT22;74367;35.280;-77.632;2024-03-07T04:47:14;15.28;97.90
70294;DHT22;74367;35.280;-77.632;2024-03-07T04:49:41;15.27;97.88
70294;DHT22;74367;35.280;-77.632;2024-03-07T04:52:09;15.30;97.86
70294;DHT22;74367;35.280;-77.632;2024-03-07T04:54:34;15.28;97.90
70294;DHT22;74367;35.280;-77.632;2024-03-07T04:57:01;15.23;97.89
70294;DHT22;74367;35.280;-77.632;2024-03-07T04:59:27;15.26;97.85
70294;DHT22;74367;35.280;-77.632;2024-03-07T05:01:53;15.26;97.87
70294;DHT22;74367;35.280;-77.632;2024-03-07T05:04:19;15.31;97.86
70294;DHT22;74367;35.280;-77.632;2024-03-07T05:06:45;15.31;97.89
70294;DHT22;74367;35.280;-77.632;2024-03-07T05:09:14;15.30;97.88
70294;DHT22;74367;35.280;-77.632;2024-03-07T05:11:51;15.26;97.87
70294;DHT22;74367;35.280;-77.632;2024-03-07T05:14:17;15.21;97.89
70294;DHT22;74367;35.280;-77.632;2024-03-07T05:16:43;15.23;97.90
70294;DHT22;74367;35.280;-77.632;2024-03-07T05:19:09;15.27;97.90
70294;DHT22;74367;35.280;-77.632;2024-03-07T05:21:35;15.26;97.87
70294;DHT22;74367;35.280;-77.632;2024-03-07T05:24:02;15.26;97.90
70294;DHT22;74367;35.280;-77.632;2024-03-07T05:26:34;15.23;97.92
70294;DHT22;74367;35.280;-77.632;2024-03-07T05:29:07;15.21;97.90
70294;DHT22;74367;35.280;-77.632;2024-03-07T05:31:37;15.16;97.88
70294;DHT22;74367;35.280;-77.632;2024-03-07T05:34:04;15.20;97.92
70294;DHT22;74367;35.280;-77.632;2024-03-07T05:36:37;15.19;97.89
70294;DHT22;74367;35.280;-77.632;2024-03-07T05:39:14;15.19;97.91
70294;DHT22;74367;35.280;-77.632;2024-03-07T05:41:41;15.14;97.90
70294;DHT22;74367;35.280;-77.632;2024-03-07T05:44:08;15.13;97.90
70294;DHT22;74367;35.280;-77.632;2024-03-07T05:46:36;15.10;97.91
70294;DHT22;74367;35.280;-77.632;2024-03-07T05:49:03;15.16;97.94
70294;DHT22;74367;35.280;-77.632;2024-03-07T05:51:29;15.14;97.95
70294;DHT22;74367;35.280;-77.632;2024-03-07T05:53:55;15.14;97.96
70294;DHT22;74367;35.280;-77.632;2024-03-07T05:56:21;15.13;97.92
70294;DHT22;74367;35.280;-77.632;2024-03-07T05:58:48;15.11;97.88
70294;DHT22;74367;35.280;-77.632;2024-03-07T06:01:14;15.03;97.92
70294;DHT22;74367;35.280;-77.632;2024-03-07T06:03:41;15.04;97.95
70294;DHT22;74367;35.280;-77.632;2024-03-07T06:06:07;15.03;97.90
70294;DHT22;74367;35.280;-77.632;2024-03-07T06:08:37;14.99;97.97
70294;DHT22;74367;35.280;-77.632;2024-03-07T06:11:04;14.93;97.91
70294;DHT22;74367;35.280;-77.632;2024-03-07T06:13:31;15.00;97.95
70294;DHT22;74367;35.280;-77.632;2024-03-07T06:15:57;15.00;97.98
70294;DHT22;74367;35.280;-77.632;2024-03-07T06:18:23;14.92;97.97
70294;DHT22;74367;35.280;-77.632;2024-03-07T06:20:49;14.93;97.95
70294;DHT22;74367;35.280;-77.632;2024-03-07T06:23:15;14.89;97.98
70294;DHT22;74367;35.280;-77.632;2024-03-07T06:25:42;14.86;97.96
70294;DHT22;74367;35.280;-77.632;2024-03-07T06:28:18;14.96;97.97
70294;DHT22;74367;35.280;-77.632;2024-03-07T06:30:46;14.87;97.99
70294;DHT22;74367;35.280;-77.632;2024-03-07T06:33:15;14.84;97.98
70294;DHT22;74367;35.280;-77.632;2024-03-07T06:35:43;14.87;97.99
70294;DHT22;74367;35.280;-77.632;2024-03-07T06:38:09;14.84;97.99
70294;DHT22;74367;35.280;-77.632;2024-03-07T06:40:36;14.92;97.99
70294;DHT22;74367;35.280;-77.632;2024-03-07T06:43:03;14.87;98.02
70294;DHT22;74367;35.280;-77.632;2024-03-07T06:45:38;14.90;97.99
70294;DHT22;74367;35.280;-77.632;2024-03-07T06:48:05;14.96;98.02
70294;DHT22;74367;35.280;-77.632;2024-03-07T06:50:35;14.86;98.02
70294;DHT22;74367;35.280;-77.632;2024-03-07T06:53:02;14.69;98.00
70294;DHT22;74367;35.280;-77.632;2024-03-07T06:55:29;14.82;98.00
70294;DHT22;74367;35.280;-77.632;2024-03-07T06:57:55;14.87;98.01
70294;DHT22;74367;35.280;-77.632;2024-03-07T07:00:21;14.79;98.02
70294;DHT22;74367;35.280;-77.632;2024-03-07T07:02:48;14.79;98.01
70294;DHT22;74367;35.280;-77.632;2024-03-07T07:05:14;14.76;98.01
70294;DHT22;74367;35.280;-77.632;2024-03-07T07:07:46;14.79;98.02
70294;DHT22;74367;35.280;-77.632;2024-03-07T07:10:13;14.82;98.05
70294;DHT22;74367;35.280;-77.632;2024-03-07T07:12:47;14.86;98.01
70294;DHT22;74367;35.280;-77.632;2024-03-07T07:15:15;14.90;98.03
70294;DHT22;74367;35.280;-77.632;2024-03-07T07:17:42;14.76;98.06
70294;DHT22;74367;35.280;-77.632;2024-03-07T07:20:11;14.72;98.03
70294;DHT22;74367;35.280;-77.632;2024-03-07T07:22:39;14.69;98.02
70294;DHT22;74367;35.280;-77.632;2024-03-07T07:25:06;14.72;98.03
70294;DHT22;74367;35.280;-77.632;2024-03-07T07:27:43;14.75;98.04
70294;DHT22;74367;35.280;-77.632;2024-03-07T07:30:11;14.80;98.07
70294;DHT22;74367;35.280;-77.632;2024-03-07T07:32:37;14.76;98.04
70294;DHT22;74367;35.280;-77.632;2024-03-07T07:35:04;14.77;98.05
70294;DHT22;74367;35.280;-77.632;2024-03-07T07:37:35;14.77;98.08
70294;DHT22;74367;35.280;-77.632;2024-03-07T07:40:06;14.72;98.05
70294;DHT22;74367;35.280;-77.632;2024-03-07T07:42:35;14.76;98.02
70294;DHT22;74367;35.280;-77.632;2024-03-07T07:45:06;14.72;98.04
70294;DHT22;74367;35.280;-77.632;2024-03-07T07:47:32;14.56;98.03
70294;DHT22;74367;35.280;-77.632;2024-03-07T07:49:58;14.72;98.04
70294;DHT22;74367;35.280;-77.632;2024-03-07T07:52:25;14.71;98.07
70294;DHT22;74367;35.280;-77.632;2024-03-07T07:54:50;14.65;98.06
70294;DHT22;74367;35.280;-77.632;2024-03-07T07:57:17;14.69;98.04
70294;DHT22;74367;35.280;-77.632;2024-03-07T07:59:43;14.62;98.08
70294;DHT22;74367;35.280;-77.632;2024-03-07T08:02:09;14.65;98.07
70294;DHT22;74367;35.280;-77.632;2024-03-07T08:04:36;14.63;98.06
70294;DHT22;74367;35.280;-77.632;2024-03-07T08:07:02;14.53;98.08
70294;DHT22;74367;35.280;-77.632;2024-03-07T08:09:30;14.51;98.08
70294;DHT22;74367;35.280;-77.632;2024-03-07T08:11:56;14.61;98.06
70294;DHT22;74367;35.280;-77.632;2024-03-07T08:14:22;14.38;98.09
70294;DHT22;74367;35.280;-77.632;2024-03-07T08:16:51;14.38;98.03
70294;DHT22;74367;35.280;-77.632;2024-03-07T08:19:17;14.36;98.05
70294;DHT22;74367;35.280;-77.632;2024-03-07T08:21:43;14.55;98.06
70294;DHT22;74367;35.280;-77.632;2024-03-07T08:24:09;14.56;98.07
70294;DHT22;74367;35.280;-77.632;2024-03-07T08:26:36;14.41;98.05
70294;DHT22;74367;35.280;-77.632;2024-03-07T08:29:03;14.53;98.09
70294;DHT22;74367;35.280;-77.632;2024-03-07T08:31:28;14.49;98.10
70294;DHT22;74367;35.280;-77.632;2024-03-07T08:33:54;14.51;98.06
70294;DHT22;74367;35.280;-77.632;2024-03-07T08:36:20;14.61;98.05
70294;DHT22;74367;35.280;-77.632;2024-03-07T08:38:48;14.53;98.04
70294;DHT22;74367;35.280;-77.632;2024-03-07T08:41:13;14.51;98.08
70294;DHT22;74367;35.280;-77.632;2024-03-07T08:43:40;14.41;98.09
70294;DHT22;74367;35.280;-77.632;2024-03-07T08:46:06;14.26;98.09
70294;DHT22;74367;35.280;-77.632;2024-03-07T08:48:33;14.44;98.07
70294;DHT22;74367;35.280;-77.632;2024-03-07T08:51:00;14.41;98.06
70294;DHT22;74367;35.280;-77.632;2024-03-07T08:53:26;14.52;98.08
70294;DHT22;74367;35.280;-77.632;2024-03-07T08:55:52;14.53;98.07
70294;DHT22;74367;35.280;-77.632;2024-03-07T08:58:18;14.38;98.07
70294;DHT22;74367;35.280;-77.632;2024-03-07T09:00:44;14.45;98.07
70294;DHT22;74367;35.280;-77.632;2024-03-07T09:03:14;14.48;98.09
70294;DHT22;74367;35.280;-77.632;2024-03-07T09:05:40;14.42;98.08
70294;DHT22;74367;35.280;-77.632;2024-03-07T09:08:07;14.44;98.08
70294;DHT22;74367;35.280;-77.632;2024-03-07T09:10:33;14.34;98.15
70294;DHT22;74367;35.280;-77.632;2024-03-07T09:12:59;14.45;98.09
70294;DHT22;74367;35.280;-77.632;2024-03-07T09:15:25;14.41;98.08
70294;DHT22;74367;35.280;-77.632;2024-03-07T09:17:51;14.32;98.04
70294;DHT22;74367;35.280;-77.632;2024-03-07T09:20:18;14.29;98.06
70294;DHT22;74367;35.280;-77.632;2024-03-07T09:22:44;14.31;98.09
70294;DHT22;74367;35.280;-77.632;2024-03-07T09:25:11;14.14;98.10
70294;DHT22;74367;35.280;-77.632;2024-03-07T09:27:39;14.11;98.09
70294;DHT22;74367;35.280;-77.632;2024-03-07T09:30:09;14.07;98.08
70294;DHT22;74367;35.280;-77.632;2024-03-07T09:32:39;14.36;98.08
70294;DHT22;74367;35.280;-77.632;2024-03-07T09:35:06;14.32;98.08
70294;DHT22;74367;35.280;-77.632;2024-03-07T09:37:33;14.24;98.07
70294;DHT22;74367;35.280;-77.632;2024-03-07T09:39:59;14.35;98.06
70294;DHT22;74367;35.280;-77.632;2024-03-07T09:42:25;14.31;98.09
70294;DHT22;74367;35.280;-77.632;2024-03-07T09:44:54;14.31;98.12
70294;DHT22;74367;35.280;-77.632;2024-03-07T09:47:22;14.29;98.07
70294;DHT22;74367;35.280;-77.632;2024-03-07T09:49:49;14.36;98.08
70294;DHT22;74367;35.280;-77.632;2024-03-07T09:52:15;14.26;98.14
70294;DHT22;74367;35.280;-77.632;2024-03-07T09:54:42;14.25;98.12
70294;DHT22;74367;35.280;-77.632;2024-03-07T09:57:11;14.32;98.10
70294;DHT22;74367;35.280;-77.632;2024-03-07T09:59:38;14.28;98.13
70294;DHT22;74367;35.280;-77.632;2024-03-07T10:02:08;14.32;98.08
70294;DHT22;74367;35.280;-77.632;2024-03-07T10:04:43;14.35;98.08
70294;DHT22;74367;35.280;-77.632;2024-03-07T10:07:17;14.21;98.12
70294;DHT22;74367;35.280;-77.632;2024-03-07T10:09:44;14.29;98.07
70294;DHT22;74367;35.280;-77.632;2024-03-07T10:12:11;14.04;98.12
70294;DHT22;74367;35.280;-77.632;2024-03-07T10:14:51;14.18;98.11
70294;DHT22;74367;35.280;-77.632;2024-03-07T10:17:19;14.18;98.11
70294;DHT22;74367;35.280;-77.632;2024-03-07T10:19:48;14.24;98.11
70294;DHT22;74367;35.280;-77.632;2024-03-07T10:22:16;14.15;98.08
70294;DHT22;74367;35.280;-77.632;2024-03-07T10:24:53;14.32;98.13
70294;DHT22;74367;35.280;-77.632;2024-03-07T10:27:20;14.38;98.13
70294;DHT22;74367;35.280;-77.632;2024-03-07T10:29:47;14.34;98.11
70294;DHT22;74367;35.280;-77.632;2024-03-07T10:32:20;14.26;98.12
70294;DHT22;74367;35.280;-77.632;2024-03-07T10:34:47;14.29;98.12
70294;DHT22;74367;35.280;-77.632;2024-03-07T10:37:14;14.07;98.10
70294;DHT22;74367;35.280;-77.632;2024-03-07T10:39:45;14.21;98.08
70294;DHT22;74367;35.280;-77.632;2024-03-07T10:42:15;14.38;98.05
70294;DHT22;74367;35.280;-77.632;2024-03-07T10:44:53;14.44;98.09
70294;DHT22;74367;35.280;-77.632;2024-03-07T10:47:21;14.31;98.13
70294;DHT22;74367;35.280;-77.632;2024-03-07T10:50:19;14.31;98.12
70294;DHT22;74367;35.280;-77.632;2024-03-07T10:52:52;14.35;98.13
70294;DHT22;74367;35.280;-77.632;2024-03-07T10:58:56;14.29;98.11
70294;DHT22;74367;35.280;-77.632;2024-03-07T11:01:18;14.34;98.10
70294;DHT22;74367;35.280;-77.632;2024-03-07T11:03:46;14.34;98.09
70294;DHT22;74367;35.280;-77.632;2024-03-07T11:06:13;14.28;98.13
70294;DHT22;74367;35.280;-77.632;2024-03-07T11:08:42;14.14;98.11
70294;DHT22;74367;35.280;-77.632;2024-03-07T11:11:09;14.17;98.12
70294;DHT22;74367;35.280;-77.632;2024-03-07T11:13:37;14.17;98.14
70294;DHT22;74367;35.280;-77.632;2024-03-07T11:16:05;14.11;98.10
70294;DHT22;74367;35.280;-77.632;2024-03-07T11:18:31;14.08;98.13
70294;DHT22;74367;35.280;-77.632;2024-03-07T11:20:57;14.04;98.14
70294;DHT22;74367;35.280;-77.632;2024-03-07T11:23:30;14.01;98.11
70294;DHT22;74367;35.280;-77.632;2024-03-07T11:26:08;14.01;98.13
70294;DHT22;74367;35.280;-77.632;2024-03-07T11:28:39;13.83;98.08
70294;DHT22;74367;35.280;-77.632;2024-03-07T11:31:12;13.87;98.13
70294;DHT22;74367;35.280;-77.632;2024-03-07T11:33:39;13.81;98.12
70294;DHT22;74367;35.280;-77.632;2024-03-07T11:36:10;13.86;98.10
70294;DHT22;74367;35.280;-77.632;2024-03-07T11:38:48;14.04;98.13
70294;DHT22;74367;35.280;-77.632;2024-03-07T11:41:14;14.04;98.13
70294;DHT22;74367;35.280;-77.632;2024-03-07T11:43:41;13.90;98.11
70294;DHT22;74367;35.280;-77.632;2024-03-07T11:46:10;13.80;98.10
70294;DHT22;74367;35.280;-77.632;2024-03-07T11:48:42;13.81;98.12
70294;DHT22;74367;35.280;-77.632;2024-03-07T11:51:12;13.76;98.13
70294;DHT22;74367;35.280;-77.632;2024-03-07T11:53:39;13.83;98.13
70294;DHT22;74367;35.280;-77.632;2024-03-07T11:56:05;13.97;98.09
70294;DHT22;74367;35.280;-77.632;2024-03-07T11:58:37;14.05;98.12
70294;DHT22;74367;35.280;-77.632;2024-03-07T12:01:07;14.05;98.12
70294;DHT22;74367;35.280;-77.632;2024-03-07T12:03:39;14.18;98.11
70294;DHT22;74367;35.280;-77.632;2024-03-07T12:06:05;14.17;98.12
70294;DHT22;74367;35.280;-77.632;2024-03-07T12:08:31;14.08;98.09
70294;DHT22;74367;35.280;-77.632;2024-03-07T12:10:57;14.00;98.13
70294;DHT22;74367;35.280;-77.632;2024-03-07T12:13:24;14.08;98.10
70294;DHT22;74367;35.280;-77.632;2024-03-07T12:15:52;14.20;98.12
70294;DHT22;74367;35.280;-77.632;2024-03-07T12:18:18;14.20;98.16
70294;DHT22;74367;35.280;-77.632;2024-03-07T12:20:46;14.28;98.14
70294;DHT22;74367;35.280;-77.632;2024-03-07T12:23:16;14.26;98.16
70294;DHT22;74367;35.280;-77.632;2024-03-07T12:25:45;14.10;98.13
70294;DHT22;74367;35.280;-77.632;2024-03-07T12:28:13;14.17;98.15
70294;DHT22;74367;35.280;-77.632;2024-03-07T12:33:12;14.13;98.12
70294;DHT22;74367;35.280;-77.632;2024-03-07T12:35:43;14.18;98.13
70294;DHT22;74367;35.280;-77.632;2024-03-07T12:38:10;14.18;98.13
70294;DHT22;74367;35.280;-77.632;2024-03-07T12:40:39;14.07;98.10
70294;DHT22;74367;35.280;-77.632;2024-03-07T12:43:19;14.13;98.09
70294;DHT22;74367;35.280;-77.632;2024-03-07T12:45:50;14.15;98.14
70294;DHT22;74367;35.280;-77.632;2024-03-07T12:48:17;14.08;98.13
70294;DHT22;74367;35.280;-77.632;2024-03-07T12:50:48;14.07;98.13
70294;DHT22;74367;35.280;-77.632;2024-03-07T12:53:24;14.13;98.14
70294;DHT22;74367;35.280;-77.632;2024-03-07T12:55:54;14.13;98.14
70294;DHT22;74367;35.280;-77.632;2024-03-07T12:58:20;14.22;98.13
70294;DHT22;74367;35.280;-77.632;2024-03-07T13:00:52;14.21;98.13
70294;DHT22;74367;35.280;-77.632;2024-03-07T13:03:18;14.24;98.13
70294;DHT22;74367;35.280;-77.632;2024-03-07T13:05:44;14.26;98.13
70294;DHT22;74367;35.280;-77.632;2024-03-07T13:08:10;14.26;98.15
70294;DHT22;74367;35.280;-77.632;2024-03-07T13:10:43;14.36;98.15
70294;DHT22;74367;35.280;-77.632;2024-03-07T13:13:10;14.38;98.14
70294;DHT22;74367;35.280;-77.632;2024-03-07T13:15:40;14.36;98.13
70294;DHT22;74367;35.280;-77.632;2024-03-07T13:18:08;14.46;98.13
70294;DHT22;74367;35.280;-77.632;2024-03-07T13:20:35;14.28;98.15
70294;DHT22;74367;35.280;-77.632;2024-03-07T13:23:02;14.41;98.10
70294;DHT22;74367;35.280;-77.632;2024-03-07T13:25:29;14.45;98.13
70294;DHT22;74367;35.280;-77.632;2024-03-07T13:30:44;14.61;98.14
70294;DHT22;74367;35.280;-77.632;2024-03-07T13:33:12;14.65;98.16
70294;DHT22;74367;35.280;-77.632;2024-03-07T13:35:39;14.66;98.12
70294;DHT22;74367;35.280;-77.632;2024-03-07T13:38:06;14.63;98.17
70294;DHT22;74367;35.280;-77.632;2024-03-07T13:40:32;14.68;98.13
70294;DHT22;74367;35.280;-77.632;2024-03-07T13:43:04;14.77;98.14
70294;DHT22;74367;35.280;-77.632;2024-03-07T13:45:35;14.93;98.16
70294;DHT22;74367;35.280;-77.632;2024-03-07T13:48:06;14.86;98.17
70294;DHT22;74367;35.280;-77.632;2024-03-07T13:50:34;14.76;98.14
70294;DHT22;74367;35.280;-77.632;2024-03-07T13:53:01;14.83;98.13
70294;DHT22;74367;35.280;-77.632;2024-03-07T14:29:22;15.35;98.12
70294;DHT22;74367;35.280;-77.632;2024-03-07T14:31:52;15.30;98.15
70294;DHT22;74367;35.280;-77.632;2024-03-07T14:37:37;15.26;98.09
70294;DHT22;74367;35.280;-77.632;2024-03-07T14:40:12;15.33;98.11
70294;DHT22;74367;35.280;-77.632;2024-03-07T14:42:47;15.31;98.15
70294;DHT22;74367;35.280;-77.632;2024-03-07T14:45:18;15.21;98.09
70294;DHT22;74367;35.280;-77.632;2024-03-07T14:47:47;14.90;98.14
70294;DHT22;74367;35.280;-77.632;2024-03-07T14:50:14;15.24;98.08
70294;DHT22;74367;35.280;-77.632;2024-03-07T14:52:44;15.45;98.10
70294;DHT22;74367;35.280;-77.632;2024-03-07T14:55:11;15.13;98.11
70294;DHT22;74367;35.280;-77.632;2024-03-07T14:57:40;15.26;98.11
70294;DHT22;74367;35.280;-77.632;2024-03-07T15:00:08;15.31;98.09
70294;DHT22;74367;35.280;-77.632;2024-03-07T15:02:48;15.08;98.11
70294;DHT22;74367;35.280;-77.632;2024-03-07T15:05:18;15.21;98.15
70294;DHT22;74367;35.280;-77.632;2024-03-07T15:07:47;15.40;98.12
70294;DHT22;74367;35.280;-77.632;2024-03-07T15:10:18;15.40;98.10
70294;DHT22;74367;35.280;-77.632;2024-03-07T15:12:46;15.55;98.09
70294;DHT22;74367;35.280;-77.632;2024-03-07T15:15:14;15.54;98.10
70294;DHT22;74367;35.280;-77.632;2024-03-07T15:17:41;15.65;98.07
70294;DHT22;74367;35.280;-77.632;2024-03-07T15:20:09;15.61;98.10
70294;DHT22;74367;35.280;-77.632;2024-03-07T15:22:55;15.68;98.10
70294;DHT22;74367;35.280;-77.632;2024-03-07T15:25:22;15.40;98.10
70294;DHT22;74367;35.280;-77.632;2024-03-07T15:27:52;16.22;98.11
70294;DHT22;74367;35.280;-77.632;2024-03-07T15:30:19;15.62;98.09
70294;DHT22;74367;35.280;-77.632;2024-03-07T15:32:46;15.64;98.08
70294;DHT22;74367;35.280;-77.632;2024-03-07T15:35:13;17.66;98.10
70294;DHT22;74367;35.280;-77.632;2024-03-07T15:37:49;19.26;98.09
70294;DHT22;74367;35.280;-77.632;2024-03-07T15:40:16;19.02;98.12
70294;DHT22;74367;35.280;-77.632;2024-03-07T15:42:47;18.75;98.08
70294;DHT22;74367;35.280;-77.632;2024-03-07T15:45:18;19.35;98.09
70294;DHT22;74367;35.280;-77.632;2024-03-07T15:47:59;18.96;98.32
70294;DHT22;74367;35.280;-77.632;2024-03-07T15:50:27;18.59;95.27
70294;DHT22;74367;35.280;-77.632;2024-03-07T15:52:56;18.56;99.14